アンタナナリボ の空港の天気 - METARとTAF

イヴァト空港(アンタナナリボ) ( FMMI / TNR ) - マダガスカル アンタナナリボ
飛行場実況気象(Metar)
観測時間09/28 02:30 EAT (09/27 23:30 UTC)
風向・風速南東 2m/s
視程10km以上
天気現象
少しの雲 雲底高度 520m
気温10℃
湿度100%
気圧1023hPa
METARFMMI 272330Z 14004KT 110V180 9999 FEW017 10/10 Q1023 NOSIG
過去の天気等 Google飛行場航空写真 Wunderground天気予報

過去48時間のMETAR

飛行場予報(TAF)
発表時間: -
28日3時 EAT から 確率 30% で
視程1500m
天気現象もや
全天の8割程度の雲 雲底高度 150m
28日9時 EAT ~ 28日11時 EAT に徐々に
風向・風速東 8m/s
TAF
FMMI 272300Z 2800/2906 16005KT 9999 FEW010 SCT020
PROB30 2800/2805 1500 BR BKN005
BECMG 2806/2808 10015KT